createdAt,value
2019-06-20T00:00:57.874Z,96003.98
2019-06-20T00:02:06.263Z,96001.64
2019-06-20T00:03:14.865Z,96000.92
2019-06-20T00:04:22.885Z,96003.58
2019-06-20T00:05:30.200Z,96001.73
2019-06-20T00:06:39.290Z,96000.20
2019-06-20T00:07:46.498Z,96006.08
2019-06-20T00:08:54.503Z,96004.76
2019-06-20T00:10:02.795Z,96013.31
2019-06-20T00:11:11.972Z,96013.01
2019-06-20T00:12:19.227Z,96020.95
2019-06-20T00:13:27.245Z,96033.08
2019-06-20T00:14:34.478Z,96038.61
2019-06-20T00:15:42.967Z,96040.04
2019-06-20T00:16:50.169Z,96044.93
2019-06-20T00:17:58.157Z,96056.98
2019-06-20T00:19:05.357Z,96055.66
2019-06-20T00:20:13.980Z,96059.35
2019-06-20T00:21:21.203Z,96046.82
2019-06-20T00:22:29.190Z,96061.30
2019-06-20T00:23:36.400Z,96054.59
2019-06-20T00:24:44.456Z,96053.44
2019-06-20T00:25:51.686Z,96060.88
2019-06-20T00:26:59.685Z,96052.86
2019-06-20T00:28:06.891Z,96051.01
2019-06-20T00:29:14.886Z,96054.25
2019-06-20T00:30:22.291Z,96051.22
2019-06-20T00:31:30.298Z,96053.45
2019-06-20T00:32:37.521Z,96041.33
2019-06-20T00:33:45.557Z,96050.39
2019-06-20T00:34:52.754Z,96049.66
2019-06-20T00:36:00.758Z,96060.55
2019-06-20T00:37:07.956Z,96059.48
2019-06-20T00:38:16.935Z,96079.30
2019-06-20T00:39:24.160Z,96078.15
2019-06-20T00:40:32.195Z,96085.06
2019-06-20T00:41:39.622Z,96101.69
2019-06-20T00:42:47.637Z,96116.22
2019-06-20T00:43:54.892Z,96117.80
2019-06-20T00:45:02.884Z,96131.31
2019-06-20T00:46:10.109Z,96145.79
2019-06-20T00:47:18.113Z,96168.31
2019-06-20T00:48:25.339Z,96183.63
2019-06-20T00:49:33.330Z,96194.92
2019-06-20T00:50:40.541Z,96214.19
2019-06-20T00:51:48.547Z,96237.51
2019-06-20T00:52:55.772Z,96241.53
2019-06-20T00:54:03.778Z,96256.77
2019-06-20T00:55:11.214Z,96264.56
2019-06-20T00:56:19.238Z,96277.62
2019-06-20T00:57:26.459Z,96287.74
2019-06-20T00:58:34.465Z,96303.95
2019-06-20T00:59:41.675Z,96305.67
2019-06-20T01:00:49.669Z,96327.02
2019-06-20T01:01:56.883Z,96324.83
2019-06-20T01:03:05.395Z,96319.05
2019-06-20T01:04:12.619Z,96321.79
2019-06-20T01:05:20.610Z,96326.13
2019-06-20T01:06:27.928Z,96333.16
2019-06-20T01:07:35.931Z,96326.72
2019-06-20T01:08:43.170Z,96321.91
2019-06-20T01:09:51.162Z,96327.16
2019-06-20T01:10:58.411Z,96318.81
2019-06-20T01:12:06.363Z,96325.80
2019-06-20T01:13:13.573Z,96320.45
2019-06-20T01:14:21.595Z,96322.79
2019-06-20T01:15:28.806Z,96324.28
2019-06-20T01:16:36.796Z,96317.59
2019-06-20T01:17:44.009Z,96317.12
2019-06-20T01:18:51.997Z,96319.78
2019-06-20T01:19:59.227Z,96321.45
2019-06-20T01:21:09.795Z,96313.44
2019-06-20T01:22:17.006Z,96315.92
2019-06-20T01:23:24.996Z,96316.59
2019-06-20T01:24:32.280Z,96316.77
2019-06-20T01:25:44.054Z,96321.22
2019-06-20T01:26:51.252Z,96320.39
2019-06-20T01:27:59.270Z,96320.58
2019-06-20T01:29:06.660Z,96322.39
2019-06-20T01:30:15.357Z,96315.98
2019-06-20T01:31:22.596Z,96315.69
2019-06-20T01:32:30.585Z,96313.91
2019-06-20T01:33:37.810Z,96319.02
2019-06-20T01:34:45.806Z,96322.15
2019-06-20T01:35:54.093Z,96321.18
2019-06-20T01:37:02.112Z,96326.30
2019-06-20T01:38:09.417Z,96327.00
2019-06-20T01:39:17.423Z,96326.32
2019-06-20T01:40:24.632Z,96329.63
2019-06-20T01:41:32.696Z,96335.88
2019-06-20T01:42:39.936Z,96330.30
2019-06-20T01:43:50.876Z,96324.70
2019-06-20T01:44:56.862Z,96324.21
2019-06-20T01:46:05.273Z,96323.22
2019-06-20T01:47:12.500Z,96317.45
2019-06-20T01:48:20.519Z,96320.06
2019-06-20T01:49:27.715Z,96311.53
2019-06-20T01:50:35.707Z,96312.78
2019-06-20T01:51:42.931Z,96306.67
2019-06-20T01:52:50.938Z,96302.38
2019-06-20T01:53:58.210Z,96302.31
2019-06-20T01:55:06.934Z,96294.23
2019-06-20T01:56:14.159Z,96291.08
2019-06-20T01:57:22.360Z,96283.15
2019-06-20T01:58:29.600Z,96274.19
2019-06-20T01:59:37.618Z,96271.02
2019-06-20T02:00:48.388Z,96273.30
2019-06-20T02:01:56.400Z,96273.55
2019-06-20T02:03:03.788Z,96281.42
2019-06-20T02:04:11.781Z,96282.31
2019-06-20T02:05:19.105Z,96283.59
2019-06-20T02:06:27.099Z,96270.89
2019-06-20T02:07:34.310Z,96279.54
2019-06-20T02:08:42.305Z,96277.40
2019-06-20T02:09:49.511Z,96273.41
2019-06-20T02:10:57.514Z,96271.41
2019-06-20T02:12:04.982Z,96268.06
2019-06-20T02:13:13.375Z,96263.92
2019-06-20T02:14:20.600Z,96256.34
2019-06-20T02:15:28.621Z,96259.93
2019-06-20T02:16:35.847Z,96265.84
2019-06-20T02:17:43.855Z,96264.34
2019-06-20T02:18:51.093Z,96267.62
2019-06-20T02:19:59.105Z,96259.39
2019-06-20T02:21:07.195Z,96256.25
2019-06-20T02:22:15.191Z,96253.61
2019-06-20T02:23:23.436Z,96248.20
2019-06-20T02:24:31.439Z,96243.11
2019-06-20T02:25:38.772Z,96245.30
2019-06-20T02:26:46.774Z,96243.02
2019-06-20T02:27:54.001Z,96239.78
2019-06-20T02:29:02.007Z,96243.41
2019-06-20T02:30:09.432Z,96245.55
2019-06-20T02:31:17.421Z,96250.82
2019-06-20T02:32:24.631Z,96248.50
2019-06-20T02:33:32.659Z,96250.42
2019-06-20T02:34:39.933Z,96252.06
2019-06-20T02:35:48.054Z,96244.48
2019-06-20T02:36:55.257Z,96246.11
2019-06-20T02:38:03.248Z,96254.02
2019-06-20T02:39:10.561Z,96253.56
2019-06-20T02:40:18.691Z,96248.69
2019-06-20T02:41:25.924Z,96255.49
2019-06-20T02:42:33.918Z,96252.05
2019-06-20T02:43:41.133Z,96247.17
2019-06-20T02:44:49.156Z,96253.30
2019-06-20T02:45:56.497Z,96251.02
2019-06-20T02:47:04.525Z,96253.41
2019-06-20T02:48:11.848Z,96259.20
2019-06-20T02:49:19.856Z,96260.45
2019-06-20T02:50:27.591Z,96261.16
2019-06-20T02:51:36.016Z,96269.27
2019-06-20T02:52:43.270Z,96266.87
2019-06-20T02:53:51.277Z,96262.32
2019-06-20T02:54:58.501Z,96258.75
2019-06-20T02:56:06.612Z,96264.20
2019-06-20T02:57:13.852Z,96262.56
2019-06-20T02:58:21.888Z,96271.95
2019-06-20T02:59:29.128Z,96272.63
2019-06-20T03:00:55.366Z,96269.34
2019-06-20T03:02:02.576Z,96266.07
2019-06-20T03:03:10.563Z,96268.75
2019-06-20T03:04:17.789Z,96266.65
2019-06-20T03:05:25.810Z,96269.84
2019-06-20T03:06:33.040Z,96265.27
2019-06-20T03:07:41.045Z,96271.25
2019-06-20T03:08:48.283Z,96265.55
2019-06-20T03:09:56.273Z,96278.43
2019-06-20T03:11:03.513Z,96281.41
2019-06-20T03:12:11.521Z,96278.95
2019-06-20T03:13:18.822Z,96281.58
2019-06-20T03:14:26.827Z,96282.07
2019-06-20T03:15:34.172Z,96281.58
2019-06-20T03:16:42.176Z,96283.54
2019-06-20T03:17:49.407Z,96278.43
2019-06-20T03:18:58.488Z,96279.37
2019-06-20T03:20:06.168Z,96281.66
2019-06-20T03:21:14.172Z,96279.99
2019-06-20T03:22:21.381Z,96282.77
2019-06-20T03:23:29.389Z,96283.92
2019-06-20T03:24:36.612Z,96285.67
2019-06-20T03:25:44.651Z,96285.00
2019-06-20T03:26:51.879Z,96284.66
2019-06-20T03:27:59.922Z,96287.94
2019-06-20T03:29:07.254Z,96286.62
2019-06-20T03:30:15.321Z,96284.81
2019-06-20T03:31:22.547Z,96287.94
2019-06-20T03:32:30.542Z,96288.44
2019-06-20T03:33:37.749Z,96298.47
2019-06-20T03:34:45.771Z,96297.97
2019-06-20T03:35:53.002Z,96295.83
2019-06-20T03:37:01.017Z,96296.16
2019-06-20T03:38:08.213Z,96298.12
2019-06-20T03:39:16.250Z,96294.49
2019-06-20T03:40:23.650Z,96294.93
2019-06-20T03:41:31.661Z,96299.35
2019-06-20T03:42:38.883Z,96300.49
2019-06-20T03:43:46.875Z,96304.63
2019-06-20T03:45:02.243Z,96302.92
2019-06-20T03:46:03.802Z,96303.07
2019-06-20T03:47:11.014Z,96295.50
2019-06-20T03:48:19.036Z,96301.08
2019-06-20T03:49:27.309Z,96302.72
2019-06-20T03:50:35.298Z,96295.64
2019-06-20T03:51:42.496Z,96298.77
2019-06-20T03:53:02.354Z,96290.88
2019-06-20T03:54:10.079Z,96289.87
2019-06-20T03:55:18.112Z,96295.33
2019-06-20T03:56:25.319Z,96293.83
2019-06-20T03:57:33.339Z,96293.98
2019-06-20T03:58:40.565Z,96288.83
2019-06-20T03:59:48.622Z,96281.57
2019-06-20T04:00:55.842Z,96288.63
2019-06-20T04:02:03.837Z,96290.08
2019-06-20T04:03:11.060Z,96291.55
2019-06-20T04:04:19.079Z,96290.66
2019-06-20T04:05:26.320Z,96288.99
2019-06-20T04:06:34.311Z,96285.36
2019-06-20T04:07:41.521Z,96287.82
2019-06-20T04:08:49.512Z,96278.75
2019-06-20T04:09:56.725Z,96285.97
2019-06-20T04:11:04.732Z,96287.08
2019-06-20T04:12:11.954Z,96295.13
2019-06-20T04:13:19.965Z,96295.45
2019-06-20T04:14:27.200Z,96294.95
2019-06-20T04:15:35.912Z,96298.41
2019-06-20T04:16:43.137Z,96300.22
2019-06-20T04:17:51.132Z,96296.45
2019-06-20T04:18:58.340Z,96287.08
2019-06-20T04:20:06.359Z,96290.92
2019-06-20T04:21:13.585Z,96292.59
2019-06-20T04:22:21.592Z,96291.13
2019-06-20T04:23:28.818Z,96292.62
2019-06-20T04:24:36.844Z,96292.80
2019-06-20T04:25:44.050Z,96297.42
2019-06-20T04:26:52.069Z,96287.42
2019-06-20T04:27:59.294Z,96290.73
2019-06-20T04:29:07.315Z,96284.32
2019-06-20T04:30:14.919Z,96273.46
2019-06-20T04:31:22.942Z,96276.91
2019-06-20T04:32:30.160Z,96278.38
2019-06-20T04:33:38.194Z,96272.94
2019-06-20T04:34:45.371Z,96280.13
2019-06-20T04:35:53.362Z,96282.91
2019-06-20T04:37:00.589Z,96285.69
2019-06-20T04:38:08.632Z,96289.46
2019-06-20T04:39:19.566Z,96293.88
2019-06-20T04:40:25.580Z,96300.75
2019-06-20T04:41:32.786Z,96296.63
2019-06-20T04:42:40.797Z,96301.89
2019-06-20T04:43:48.699Z,96295.95
2019-06-20T04:44:57.578Z,96297.59
2019-06-20T04:46:13.594Z,96294.95
2019-06-20T04:47:22.678Z,96292.00
2019-06-20T04:48:29.904Z,96295.80
2019-06-20T04:49:37.941Z,96297.62
2019-06-20T04:50:45.152Z,96292.06
2019-06-20T04:51:53.144Z,96299.97
2019-06-20T04:53:00.357Z,96295.20
2019-06-20T04:54:08.459Z,96294.88
2019-06-20T04:55:16.635Z,96292.23
2019-06-20T04:56:24.646Z,96294.05
2019-06-20T04:57:31.853Z,96291.91
2019-06-20T04:58:40.944Z,96289.28
2019-06-20T04:59:50.534Z,96291.42
2019-06-20T05:00:58.555Z,96290.92
2019-06-20T05:02:05.828Z,96289.11
2019-06-20T05:03:13.846Z,96283.84
2019-06-20T05:04:21.072Z,96284.95
2019-06-20T05:05:29.095Z,96283.45
2019-06-20T05:06:36.380Z,96275.88
2019-06-20T05:07:44.405Z,96274.05
2019-06-20T05:08:51.627Z,96269.42
2019-06-20T05:09:59.632Z,96273.20
2019-06-20T05:11:06.843Z,96270.89
2019-06-20T05:12:14.880Z,96274.98
2019-06-20T05:13:23.591Z,96272.45
2019-06-20T05:14:31.612Z,96268.83
2019-06-20T05:15:51.931Z,96273.41
2019-06-20T05:16:48.530Z,96280.64
2019-06-20T05:17:55.765Z,96283.45
2019-06-20T05:19:03.762Z,96286.09
2019-06-20T05:20:11.582Z,96290.86
2019-06-20T05:21:22.397Z,96296.81
2019-06-20T05:22:28.495Z,96301.76
2019-06-20T05:23:36.515Z,96307.23
2019-06-20T05:24:43.756Z,96307.09
2019-06-20T05:25:51.765Z,96313.54
2019-06-20T05:26:58.994Z,96313.72
2019-06-20T05:28:07.016Z,96314.71
2019-06-20T05:29:14.235Z,96307.48
2019-06-20T05:30:22.452Z,96315.38
2019-06-20T05:31:29.664Z,96326.24
2019-06-20T05:32:37.641Z,96323.28
2019-06-20T05:33:44.850Z,96320.16
2019-06-20T05:34:52.873Z,96322.47
2019-06-20T05:36:01.677Z,96321.47
2019-06-20T05:37:09.665Z,96323.78
2019-06-20T05:38:16.885Z,96325.78
2019-06-20T05:39:24.882Z,96331.58
2019-06-20T05:40:32.154Z,96341.09
2019-06-20T05:41:41.211Z,96337.84
2019-06-20T05:42:48.442Z,96340.16
2019-06-20T05:43:56.429Z,96339.01
2019-06-20T05:45:03.970Z,96344.77
2019-06-20T05:46:12.008Z,96352.36
2019-06-20T05:47:19.264Z,96347.59
2019-06-20T05:48:27.270Z,96354.98
2019-06-20T05:49:34.516Z,96358.13
2019-06-20T05:50:43.534Z,96368.83
2019-06-20T05:51:50.748Z,96370.00
2019-06-20T05:52:58.767Z,96381.41
2019-06-20T05:54:06.137Z,96392.80
2019-06-20T05:55:14.147Z,96394.45
2019-06-20T05:56:21.359Z,96396.12
2019-06-20T05:57:29.380Z,96402.75
2019-06-20T05:58:36.606Z,96401.78
2019-06-20T05:59:44.612Z,96414.30
2019-06-20T06:00:51.828Z,96414.15
2019-06-20T06:01:59.829Z,96412.19
2019-06-20T06:03:07.447Z,96414.20
2019-06-20T06:04:15.570Z,96417.00
2019-06-20T06:05:22.812Z,96414.52
2019-06-20T06:06:30.805Z,96401.34
2019-06-20T06:07:38.044Z,96395.76
2019-06-20T06:08:46.190Z,96387.69
2019-06-20T06:09:53.396Z,96383.74
2019-06-20T06:11:01.408Z,96381.92
2019-06-20T06:12:09.770Z,96375.70
2019-06-20T06:13:18.995Z,96393.31
2019-06-20T06:14:26.209Z,96382.27
2019-06-20T06:15:34.207Z,96386.89
2019-06-20T06:16:44.089Z,96379.16
2019-06-20T06:17:51.123Z,96369.80
2019-06-20T06:18:58.332Z,96375.11
2019-06-20T06:20:06.952Z,96365.42
2019-06-20T06:21:14.193Z,96360.83
2019-06-20T06:22:22.202Z,96367.25
2019-06-20T06:23:29.424Z,96360.72
2019-06-20T06:24:37.393Z,96356.63
2019-06-20T06:25:44.613Z,96359.10
2019-06-20T06:26:52.785Z,96366.84
2019-06-20T06:28:00.015Z,96366.52
2019-06-20T06:29:08.034Z,96350.93
2019-06-20T06:30:17.072Z,96362.45
2019-06-20T06:31:25.068Z,96343.53
2019-06-20T06:32:40.147Z,96356.37
2019-06-20T06:33:41.978Z,96334.67
2019-06-20T06:34:49.216Z,96350.30
2019-06-20T06:35:57.213Z,96339.78
2019-06-20T06:37:04.511Z,96347.84
2019-06-20T06:38:12.487Z,96346.35
2019-06-20T06:39:19.718Z,96334.84
2019-06-20T06:40:29.278Z,96322.83
2019-06-20T06:41:36.489Z,96328.25
2019-06-20T06:42:44.508Z,96323.92
2019-06-20T06:43:51.722Z,96317.67
2019-06-20T06:44:59.744Z,96322.59
2019-06-20T06:46:06.975Z,96319.29
2019-06-20T06:47:14.993Z,96319.12
2019-06-20T06:48:22.233Z,96320.27
2019-06-20T06:49:31.320Z,96323.22
2019-06-20T06:50:38.712Z,96324.21
2019-06-20T06:51:46.793Z,96322.08
2019-06-20T06:52:54.002Z,96320.44
2019-06-20T06:54:01.969Z,96313.53
2019-06-20T06:55:09.714Z,96313.53
2019-06-20T06:56:17.718Z,96306.63
2019-06-20T06:57:26.009Z,96297.59
2019-06-20T06:58:34.032Z,96270.80
2019-06-20T06:59:41.244Z,96247.01
2019-06-20T07:00:49.611Z,96234.20
2019-06-20T07:01:56.821Z,96224.02
2019-06-20T07:03:04.851Z,96211.22
2019-06-20T07:04:12.071Z,96206.69
2019-06-20T07:05:20.288Z,96203.58
2019-06-20T07:06:27.536Z,96207.05
2019-06-20T07:07:35.531Z,96217.62
2019-06-20T07:08:42.819Z,96210.75
2019-06-20T07:09:50.810Z,96214.68
2019-06-20T07:10:58.035Z,96236.70
2019-06-20T07:12:06.088Z,96274.22
2019-06-20T07:13:13.268Z,96270.28
2019-06-20T07:14:21.287Z,96277.05
2019-06-20T07:15:28.529Z,96243.09
2019-06-20T07:16:36.610Z,96242.45
2019-06-20T07:17:43.843Z,96251.98
2019-06-20T07:18:53.372Z,96277.98
2019-06-20T07:20:00.588Z,96279.63
2019-06-20T07:21:10.465Z,96273.72
2019-06-20T07:22:17.676Z,96278.00
2019-06-20T07:23:25.685Z,96311.51
2019-06-20T07:24:32.897Z,96330.93
2019-06-20T07:25:40.915Z,96337.83
2019-06-20T07:26:48.126Z,96333.41
2019-06-20T07:27:56.134Z,96320.63
2019-06-20T07:29:03.393Z,96297.80
2019-06-20T07:30:12.609Z,96308.97
2019-06-20T07:31:19.829Z,96318.66
2019-06-20T07:32:27.829Z,96308.32
2019-06-20T07:33:35.054Z,96311.27
2019-06-20T07:34:43.044Z,96312.26
2019-06-20T07:35:51.228Z,96311.77
2019-06-20T07:36:59.223Z,96307.33
2019-06-20T07:38:06.434Z,96294.03
2019-06-20T07:39:14.451Z,96297.80
2019-06-20T07:40:21.653Z,96309.30
2019-06-20T07:41:30.737Z,96324.38
2019-06-20T07:42:38.215Z,96316.16
2019-06-20T07:43:46.234Z,96315.33
2019-06-20T07:44:53.447Z,96319.44
2019-06-20T07:46:03.201Z,96317.75
2019-06-20T07:47:17.440Z,96323.98
2019-06-20T07:48:20.123Z,96321.03
2019-06-20T07:49:27.345Z,96327.76
2019-06-20T07:50:39.149Z,96325.45
2019-06-20T07:51:44.287Z,96315.59
2019-06-20T07:53:01.826Z,96316.09
2019-06-20T07:54:01.249Z,96304.55
2019-06-20T07:55:09.791Z,96309.64
2019-06-20T07:56:17.032Z,96311.12
2019-06-20T07:57:24.977Z,96303.72
2019-06-20T07:58:32.220Z,96297.95
2019-06-20T07:59:40.240Z,96304.48
2019-06-20T08:00:47.467Z,96306.44
2019-06-20T08:01:55.473Z,96312.33
2019-06-20T08:03:02.697Z,96297.36
2019-06-20T08:04:10.741Z,96300.79
2019-06-20T08:05:18.769Z,96297.30
2019-06-20T08:06:26.760Z,96306.98
2019-06-20T08:07:33.988Z,96306.64
2019-06-20T08:08:43.075Z,96305.27
2019-06-20T08:09:50.376Z,96298.35
2019-06-20T08:10:58.390Z,96295.70
2019-06-20T08:12:05.695Z,96295.36
2019-06-20T08:13:13.692Z,96294.66
2019-06-20T08:14:20.983Z,96294.81
2019-06-20T08:15:29.658Z,96298.41
2019-06-20T08:16:36.871Z,96296.75
2019-06-20T08:17:44.928Z,96294.56
2019-06-20T08:18:52.185Z,96300.80
2019-06-20T08:20:00.275Z,96314.42
2019-06-20T08:21:07.508Z,96314.90
2019-06-20T08:22:16.311Z,96316.86
2019-06-20T08:23:23.534Z,96323.06
2019-06-20T08:24:31.556Z,96322.39
2019-06-20T08:25:38.783Z,96325.67
2019-06-20T08:26:46.774Z,96328.13
2019-06-20T08:27:54.108Z,96326.64
2019-06-20T08:29:16.142Z,96323.87
2019-06-20T08:30:11.332Z,96322.05
2019-06-20T08:31:19.354Z,96328.14
2019-06-20T08:32:26.570Z,96332.38
2019-06-20T08:33:34.585Z,96328.26
2019-06-20T08:34:41.826Z,96330.22
2019-06-20T08:35:49.831Z,96332.19
2019-06-20T08:36:57.701Z,96327.06
2019-06-20T08:38:07.606Z,96335.11
2019-06-20T08:39:15.214Z,96330.17
2019-06-20T08:40:24.284Z,96332.09
2019-06-20T08:41:31.525Z,96330.26
2019-06-20T08:42:39.570Z,96330.91
2019-06-20T08:43:46.772Z,96335.94
2019-06-20T08:44:56.263Z,96337.08
2019-06-20T08:46:04.558Z,96332.13
2019-06-20T08:47:13.764Z,96334.27
2019-06-20T08:48:21.050Z,96339.04
2019-06-20T08:49:29.087Z,96341.50
2019-06-20T08:50:36.707Z,96339.01
2019-06-20T08:51:44.760Z,96342.29
2019-06-20T08:52:51.996Z,96343.72
2019-06-20T08:54:01.134Z,96343.05
2019-06-20T08:55:09.294Z,96343.19
2019-06-20T08:56:17.315Z,96341.70
2019-06-20T08:57:24.539Z,96347.61
2019-06-20T08:58:32.550Z,96352.06
2019-06-20T08:59:39.798Z,96350.18
2019-06-20T09:00:47.885Z,96346.88
2019-06-20T09:01:57.972Z,96349.33
2019-06-20T09:03:04.902Z,96346.52
2019-06-20T09:04:12.135Z,96350.30
2019-06-20T09:05:22.720Z,96348.48
2019-06-20T09:06:29.947Z,96350.44
2019-06-20T09:07:41.725Z,96349.13
2019-06-20T09:08:47.919Z,96341.86
2019-06-20T09:09:56.026Z,96353.01
2019-06-20T09:11:04.072Z,96355.82
2019-06-20T09:12:12.144Z,96347.06
2019-06-20T09:13:19.370Z,96351.98
2019-06-20T09:14:27.415Z,96338.94
2019-06-20T09:15:34.633Z,96346.78
2019-06-20T09:16:42.667Z,96345.60
2019-06-20T09:17:49.877Z,96346.88
2019-06-20T09:18:58.431Z,96348.63
2019-06-20T09:20:07.304Z,96346.78
2019-06-20T09:21:15.293Z,96346.73
2019-06-20T09:22:22.519Z,96350.30
2019-06-20T09:23:30.514Z,96353.90
2019-06-20T09:24:37.751Z,96353.04
2019-06-20T09:25:45.771Z,96351.18
2019-06-20T09:26:53.916Z,96354.06
2019-06-20T09:28:02.663Z,96354.84
2019-06-20T09:29:10.000Z,96356.91
2019-06-20T09:30:18.515Z,96359.18
2019-06-20T09:31:25.747Z,96359.98
2019-06-20T09:32:34.758Z,96365.22
2019-06-20T09:33:42.002Z,96359.05
2019-06-20T09:34:51.416Z,96359.19
2019-06-20T09:35:59.561Z,96361.45
2019-06-20T09:37:07.777Z,96358.95
2019-06-20T09:38:15.002Z,96362.52
2019-06-20T09:39:22.984Z,96356.38
2019-06-20T09:40:30.795Z,96361.28
2019-06-20T09:41:38.806Z,96363.05
2019-06-20T09:42:46.042Z,96364.48
2019-06-20T09:43:54.281Z,96363.30
2019-06-20T09:45:02.848Z,96366.06
2019-06-20T09:46:11.131Z,96362.42
2019-06-20T09:47:18.367Z,96369.34
2019-06-20T09:48:26.391Z,96373.12
2019-06-20T09:49:33.634Z,96369.80
2019-06-20T09:50:41.678Z,96363.80
2019-06-20T09:51:50.254Z,96363.42
2019-06-20T09:52:58.511Z,96371.30
2019-06-20T09:54:05.964Z,96368.47
2019-06-20T09:55:15.073Z,96372.53
2019-06-20T09:56:22.280Z,96378.58
2019-06-20T09:57:30.286Z,96374.44
2019-06-20T09:58:37.521Z,96369.31
2019-06-20T09:59:59.485Z,96378.79
2019-06-20T10:00:55.124Z,96375.59
2019-06-20T10:02:03.301Z,96380.50
2019-06-20T10:03:11.715Z,96376.27
2019-06-20T10:04:21.614Z,96383.13
2019-06-20T10:05:28.774Z,96378.11
2019-06-20T10:06:36.802Z,96369.27
2019-06-20T10:07:45.535Z,96381.41
2019-06-20T10:08:54.861Z,96380.03
2019-06-20T10:10:02.379Z,96374.34
2019-06-20T10:12:01.085Z,96379.87
2019-06-20T10:13:09.197Z,96384.89
2019-06-20T10:14:16.725Z,96378.72
2019-06-20T10:15:26.980Z,96381.77
2019-06-20T10:16:45.256Z,96375.22
2019-06-20T10:17:43.968Z,96386.96
2019-06-20T10:18:52.159Z,96386.05
2019-06-20T10:20:00.494Z,96385.39
2019-06-20T10:21:07.723Z,96389.31
2019-06-20T10:22:15.740Z,96383.03
2019-06-20T10:23:22.947Z,96381.27
2019-06-20T10:24:30.940Z,96375.48
2019-06-20T10:25:38.616Z,96375.22
2019-06-20T10:26:47.866Z,96383.68
2019-06-20T10:27:55.650Z,96378.82
2019-06-20T10:29:03.716Z,96374.19
2019-06-20T10:30:14.571Z,96372.67
2019-06-20T10:31:21.125Z,96374.11
2019-06-20T10:32:28.361Z,96376.34
2019-06-20T10:33:36.443Z,96379.10
2019-06-20T10:34:45.150Z,96377.89
2019-06-20T10:35:53.379Z,96384.12
2019-06-20T10:37:00.583Z,96372.52
2019-06-20T10:38:08.587Z,96378.22
2019-06-20T10:39:15.813Z,96371.72
2019-06-20T10:40:26.025Z,96384.88
2019-06-20T10:41:33.270Z,96381.02
2019-06-20T10:42:44.417Z,96382.15
2019-06-20T10:43:52.279Z,96377.76
2019-06-20T10:45:00.332Z,96385.50
2019-06-20T10:46:07.766Z,96384.30
2019-06-20T10:47:15.788Z,96383.59
2019-06-20T10:48:22.988Z,96387.56
2019-06-20T10:49:31.003Z,96386.87
2019-06-20T10:50:38.265Z,96381.56
2019-06-20T10:51:47.592Z,96379.42
2019-06-20T10:52:55.123Z,96378.41
2019-06-20T10:54:03.253Z,96380.25
2019-06-20T10:55:11.561Z,96373.12
2019-06-20T10:56:19.580Z,96368.92
2019-06-20T10:57:26.836Z,96376.47
2019-06-20T10:58:34.875Z,96363.84
2019-06-20T10:59:42.717Z,96366.72
2019-06-20T11:00:50.734Z,96365.59
2019-06-20T11:01:57.983Z,96370.33
2019-06-20T11:03:07.551Z,96364.21
2019-06-20T11:04:14.783Z,96370.05
2019-06-20T11:05:23.562Z,96367.89
2019-06-20T11:06:30.814Z,96364.45
2019-06-20T11:07:38.875Z,96364.16
2019-06-20T11:08:49.488Z,96362.00
2019-06-20T11:09:57.499Z,96352.43
2019-06-20T11:11:04.803Z,96346.80
2019-06-20T11:12:12.812Z,96351.10
2019-06-20T11:13:20.048Z,96352.44
2019-06-20T11:14:28.070Z,96357.75
2019-06-20T11:15:37.718Z,96345.17
2019-06-20T11:16:47.141Z,96349.36
2019-06-20T11:17:56.569Z,96351.61
2019-06-20T11:19:04.234Z,96347.81
2019-06-20T11:20:14.880Z,96348.11
2019-06-20T11:21:22.889Z,96351.08
2019-06-20T11:22:30.087Z,96348.22
2019-06-20T11:23:39.327Z,96345.05
2019-06-20T11:24:47.444Z,96349.13
2019-06-20T11:25:55.552Z,96344.64
2019-06-20T11:27:02.769Z,96355.33
2019-06-20T11:28:10.789Z,96348.19
2019-06-20T11:29:18.055Z,96346.45
2019-06-20T11:30:26.608Z,96348.70
2019-06-20T11:31:33.817Z,96353.59
2019-06-20T11:32:41.841Z,96351.24
2019-06-20T11:33:49.069Z,96352.13
2019-06-20T11:34:57.137Z,96355.09
2019-06-20T11:36:04.688Z,96352.74
2019-06-20T11:37:12.753Z,96346.41
2019-06-20T11:38:19.979Z,96339.60
2019-06-20T11:39:27.971Z,96340.52
2019-06-20T11:40:36.433Z,96343.55
2019-06-20T11:41:44.901Z,96343.85
2019-06-20T11:42:52.122Z,96339.16
2019-06-20T11:44:00.148Z,96338.12
2019-06-20T11:45:09.293Z,96336.30
2019-06-20T11:46:17.269Z,96336.09
2019-06-20T11:47:24.498Z,96338.23
2019-06-20T11:48:32.486Z,96330.78
2019-06-20T11:49:40.414Z,96336.09
2019-06-20T11:50:48.667Z,96330.98
2019-06-20T11:51:56.487Z,96344.56
2019-06-20T11:53:04.689Z,96339.77
2019-06-20T11:54:11.914Z,96334.97
2019-06-20T11:55:20.342Z,96336.80
2019-06-20T11:56:27.568Z,96329.05
2019-06-20T11:57:35.574Z,96328.74
2019-06-20T11:58:42.801Z,96334.05
2019-06-20T11:59:50.859Z,96330.89
2019-06-20T12:01:03.712Z,96331.19
2019-06-20T12:02:07.882Z,96329.14
2019-06-20T12:03:15.101Z,96324.96
2019-06-20T12:04:23.090Z,96325.88
2019-06-20T12:05:30.312Z,96324.41
2019-06-20T12:06:38.464Z,96327.45
2019-06-20T12:07:47.769Z,96322.04
2019-06-20T12:08:56.615Z,96318.66
2019-06-20T12:10:04.031Z,96316.59
2019-06-20T12:11:12.040Z,96325.77
2019-06-20T12:12:19.309Z,96321.27
2019-06-20T12:13:27.302Z,96319.44
2019-06-20T12:14:34.547Z,96320.45
2019-06-20T12:15:42.886Z,96318.31
2019-06-20T12:16:50.148Z,96315.35
2019-06-20T12:17:58.156Z,96314.23
2019-06-20T12:19:05.426Z,96316.59
2019-06-20T12:20:15.401Z,96320.30
2019-06-20T12:21:22.608Z,96317.23
2019-06-20T12:22:30.629Z,96317.45
2019-06-20T12:23:39.022Z,96314.48
2019-06-20T12:24:48.888Z,96312.86
2019-06-20T12:25:56.117Z,96311.73
2019-06-20T12:27:04.253Z,96310.72
2019-06-20T12:28:11.499Z,96310.20
2019-06-20T12:29:19.523Z,96308.97
2019-06-20T12:30:27.152Z,96305.91
2019-06-20T12:31:35.170Z,96305.25
2019-06-20T12:32:42.531Z,96309.93
2019-06-20T12:33:50.558Z,96307.46
2019-06-20T12:34:57.846Z,96311.60
2019-06-20T12:36:06.043Z,96300.66
2019-06-20T12:37:13.269Z,96299.81
2019-06-20T12:38:21.293Z,96311.44
2019-06-20T12:39:28.523Z,96306.58
2019-06-20T12:40:39.136Z,96302.47
2019-06-20T12:41:45.637Z,96304.20
2019-06-20T12:42:53.639Z,96305.16
2019-06-20T12:44:00.872Z,96299.63
2019-06-20T12:45:10.797Z,96298.69
2019-06-20T12:46:18.971Z,96297.45
2019-06-20T12:47:26.976Z,96294.28
2019-06-20T12:48:34.158Z,96301.95
2019-06-20T12:49:42.162Z,96299.00
2019-06-20T12:50:49.629Z,96291.23
2019-06-20T12:51:57.679Z,96299.33
2019-06-20T12:53:04.921Z,96300.00
2019-06-20T12:54:13.123Z,96300.12
2019-06-20T12:55:20.384Z,96296.25
2019-06-20T12:56:28.596Z,96296.16
2019-06-20T12:57:35.836Z,96288.13
2019-06-20T12:58:44.526Z,96296.31
2019-06-20T12:59:51.937Z,96291.72
2019-06-20T13:00:59.947Z,96290.30
2019-06-20T13:02:07.157Z,96292.96
2019-06-20T13:03:15.151Z,96288.38
2019-06-20T13:04:22.372Z,96285.92
2019-06-20T13:05:30.499Z,96285.11
2019-06-20T13:06:38.822Z,96285.62
2019-06-20T13:07:47.517Z,96284.30
2019-06-20T13:08:54.967Z,96282.66
2019-06-20T13:10:02.996Z,96280.22
2019-06-20T13:11:10.443Z,96270.31
2019-06-20T13:12:18.537Z,96274.00
2019-06-20T13:13:26.818Z,96271.86
2019-06-20T13:14:34.833Z,96267.57
2019-06-20T13:15:42.493Z,96264.10
2019-06-20T13:16:50.638Z,96265.42
2019-06-20T13:17:57.861Z,96261.95
2019-06-20T13:19:05.986Z,96259.81